sensor_id;sensor_type;location;lat;lon;timestamp;pressure;altitude;pressure_sealevel;temperature;humidity
75219;BME280;63801;49.414;19.474;2023-05-10T00:01:54;94039.19;;;4.43;59.92
75219;BME280;63801;49.414;19.474;2023-05-10T00:03:54;94034.47;;;4.40;60.13
75219;BME280;63801;49.414;19.474;2023-05-10T00:05:55;94037.75;;;4.37;60.01
75219;BME280;63801;49.414;19.474;2023-05-10T00:07:55;94034.91;;;4.33;59.91
75219;BME280;63801;49.414;19.474;2023-05-10T00:09:55;94031.25;;;4.29;60.31
75219;BME280;63801;49.414;19.474;2023-05-10T00:11:55;94028.09;;;4.27;60.40
75219;BME280;63801;49.414;19.474;2023-05-10T00:13:58;94031.38;;;4.24;60.28
75219;BME280;63801;49.414;19.474;2023-05-10T00:15:58;94029.00;;;4.23;60.55
75219;BME280;63801;49.414;19.474;2023-05-10T00:17:59;94028.50;;;4.21;60.49
75219;BME280;63801;49.414;19.474;2023-05-10T00:19:59;94027.25;;;4.18;60.42
75219;BME280;63801;49.414;19.474;2023-05-10T00:22:00;94020.63;;;4.16;60.48
75219;BME280;63801;49.414;19.474;2023-05-10T00:24:00;94020.75;;;4.11;60.65
75219;BME280;63801;49.414;19.474;2023-05-10T00:26:01;94018.06;;;4.11;60.54
75219;BME280;63801;49.414;19.474;2023-05-10T00:28:01;94022.91;;;4.08;60.72
75219;BME280;63801;49.414;19.474;2023-05-10T00:30:02;94021.31;;;4.07;60.69
75219;BME280;63801;49.414;19.474;2023-05-10T00:32:03;94021.94;;;4.04;60.91
75219;BME280;63801;49.414;19.474;2023-05-10T00:34:03;94004.38;;;3.90;60.77
75219;BME280;63801;49.414;19.474;2023-05-10T00:36:04;94020.78;;;3.97;61.10
75219;BME280;63801;49.414;19.474;2023-05-10T00:38:07;94019.81;;;3.93;61.35
75219;BME280;63801;49.414;19.474;2023-05-10T00:40:08;94025.72;;;3.90;61.29
75219;BME280;63801;49.414;19.474;2023-05-10T00:42:09;94019.63;;;3.89;61.48
75219;BME280;63801;49.414;19.474;2023-05-10T00:44:09;94023.66;;;3.87;61.29
75219;BME280;63801;49.414;19.474;2023-05-10T00:46:10;94024.94;;;3.89;61.62
75219;BME280;63801;49.414;19.474;2023-05-10T00:48:11;94001.97;;;3.80;61.44
75219;BME280;63801;49.414;19.474;2023-05-10T00:50:11;94019.31;;;3.91;61.69
75219;BME280;63801;49.414;19.474;2023-05-10T00:52:12;94019.31;;;3.91;61.51
75219;BME280;63801;49.414;19.474;2023-05-10T00:54:14;94019.63;;;3.89;61.56
75219;BME280;63801;49.414;19.474;2023-05-10T00:56:15;94013.50;;;3.89;61.26
75219;BME280;63801;49.414;19.474;2023-05-10T00:58:15;94011.13;;;3.87;61.50
75219;BME280;63801;49.414;19.474;2023-05-10T01:00:16;94017.06;;;3.84;61.68
75219;BME280;63801;49.414;19.474;2023-05-10T01:02:18;94027.22;;;3.82;61.67
75219;BME280;63801;49.414;19.474;2023-05-10T01:04:18;94019.81;;;3.79;61.69
75219;BME280;63801;49.414;19.474;2023-05-10T01:06:25;94012.91;;;3.78;61.92
75219;BME280;63801;49.414;19.474;2023-05-10T01:08:26;94006.59;;;3.74;61.88
75219;BME280;63801;49.414;19.474;2023-05-10T01:10:26;94007.22;;;3.71;61.84
75219;BME280;63801;49.414;19.474;2023-05-10T01:12:27;94006.69;;;3.69;62.24
75219;BME280;63801;49.414;19.474;2023-05-10T01:14:27;94014.69;;;3.69;61.96
75219;BME280;63801;49.414;19.474;2023-05-10T01:16:32;94009.38;;;3.69;61.84
75219;BME280;63801;49.414;19.474;2023-05-10T01:18:39;94011.56;;;3.67;62.17
75219;BME280;63801;49.414;19.474;2023-05-10T01:20:43;94008.38;;;3.65;62.29
75219;BME280;63801;49.414;19.474;2023-05-10T01:32:30;94000.50;;;3.46;62.27
75219;BME280;63801;49.414;19.474;2023-05-10T01:34:39;94000.31;;;3.43;62.64
75219;BME280;63801;49.414;19.474;2023-05-10T01:36:45;94004.66;;;3.39;62.75
75219;BME280;63801;49.414;19.474;2023-05-10T01:39:13;94003.50;;;3.31;62.65
75219;BME280;63801;49.414;19.474;2023-05-10T01:43:22;93989.47;;;3.26;62.91
75219;BME280;63801;49.414;19.474;2023-05-10T01:45:31;93998.06;;;3.23;62.59
75219;BME280;63801;49.414;19.474;2023-05-10T01:47:35;93998.63;;;3.20;62.85
75219;BME280;63801;49.414;19.474;2023-05-10T01:49:47;94001.91;;;3.16;62.74
75219;BME280;63801;49.414;19.474;2023-05-10T01:51:53;93998.72;;;3.14;62.94
75219;BME280;63801;49.414;19.474;2023-05-10T01:54:02;93996.84;;;3.15;63.00
75219;BME280;63801;49.414;19.474;2023-05-10T01:56:03;93991.63;;;3.10;63.08
75219;BME280;63801;49.414;19.474;2023-05-10T01:58:13;93993.41;;;3.14;63.01
75219;BME280;63801;49.414;19.474;2023-05-10T02:00:14;93991.84;;;3.13;63.27
75219;BME280;63801;49.414;19.474;2023-05-10T02:02:17;93989.47;;;3.12;63.40
75219;BME280;63801;49.414;19.474;2023-05-10T02:04:19;93984.94;;;3.12;62.93
75219;BME280;63801;49.414;19.474;2023-05-10T02:06:22;93990.25;;;3.12;63.16
75219;BME280;63801;49.414;19.474;2023-05-10T02:08:24;93984.13;;;3.12;63.36
75219;BME280;63801;49.414;19.474;2023-05-10T02:10:25;93983.63;;;3.10;63.34
75219;BME280;63801;49.414;19.474;2023-05-10T02:12:26;93983.63;;;3.10;63.12
75219;BME280;63801;49.414;19.474;2023-05-10T02:14:28;93985.31;;;3.06;63.24
75219;BME280;63801;49.414;19.474;2023-05-10T02:16:30;93965.00;;;2.96;63.53
75219;BME280;63801;49.414;19.474;2023-05-10T02:18:31;93975.06;;;2.99;63.44
75219;BME280;63801;49.414;19.474;2023-05-10T02:20:34;93966.78;;;2.87;63.53
75219;BME280;63801;49.414;19.474;2023-05-10T02:22:35;93981.38;;;2.90;63.48
75219;BME280;63801;49.414;19.474;2023-05-10T02:24:37;93980.56;;;2.89;63.49
75219;BME280;63801;49.414;19.474;2023-05-10T02:26:39;93974.25;;;2.85;63.74
75219;BME280;63801;49.414;19.474;2023-05-10T02:28:40;93976.44;;;2.83;63.57
75219;BME280;63801;49.414;19.474;2023-05-10T02:30:42;93964.78;;;2.79;63.73
75219;BME280;63801;49.414;19.474;2023-05-10T02:32:43;93970.09;;;2.79;63.78
75219;BME280;63801;49.414;19.474;2023-05-10T02:34:44;93968.13;;;2.71;63.74
75219;BME280;63801;49.414;19.474;2023-05-10T02:36:45;93958.66;;;2.65;63.93
75219;BME280;63801;49.414;19.474;2023-05-10T02:38:46;93970.50;;;2.72;63.71
75219;BME280;63801;49.414;19.474;2023-05-10T02:40:48;93982.22;;;2.71;64.03
75219;BME280;63801;49.414;19.474;2023-05-10T02:42:50;93978.28;;;2.69;63.96
75219;BME280;63801;49.414;19.474;2023-05-10T02:44:59;93971.19;;;2.64;64.27
75219;BME280;63801;49.414;19.474;2023-05-10T02:47:00;93969.88;;;2.62;64.20
75219;BME280;63801;49.414;19.474;2023-05-10T02:49:00;93963.56;;;2.58;64.18
75219;BME280;63801;49.414;19.474;2023-05-10T02:51:04;93974.00;;;2.54;64.04
75219;BME280;63801;49.414;19.474;2023-05-10T02:53:10;93971.63;;;2.53;64.50
75219;BME280;63801;49.414;19.474;2023-05-10T02:55:15;93965.63;;;2.47;64.27
75219;BME280;63801;49.414;19.474;2023-05-10T02:57:17;93972.81;;;2.47;64.21
75219;BME280;63801;49.414;19.474;2023-05-10T02:59:23;93978.16;;;2.47;64.58
75219;BME280;63801;49.414;19.474;2023-05-10T03:01:23;93977.34;;;2.46;64.33
75219;BME280;63801;49.414;19.474;2023-05-10T03:03:24;93974.97;;;2.45;64.72
75219;BME280;63801;49.414;19.474;2023-05-10T03:05:24;93972.91;;;2.42;64.50
75219;BME280;63801;49.414;19.474;2023-05-10T03:07:25;93972.38;;;2.40;64.71
75219;BME280;63801;49.414;19.474;2023-05-10T03:09:25;93978.31;;;2.37;64.79
75219;BME280;63801;49.414;19.474;2023-05-10T03:11:52;93974.66;;;2.33;64.69
75219;BME280;63801;49.414;19.474;2023-05-10T03:14:09;93981.34;;;2.30;64.85
75219;BME280;63801;49.414;19.474;2023-05-10T03:16:15;93977.38;;;2.28;64.86
75219;BME280;63801;49.414;19.474;2023-05-10T03:20:47;93982.13;;;2.31;65.21
75219;BME280;63801;49.414;19.474;2023-05-10T03:22:52;93982.63;;;2.33;65.15
75219;BME280;63801;49.414;19.474;2023-05-10T03:24:55;93976.72;;;2.36;65.19
75219;BME280;63801;49.414;19.474;2023-05-10T03:26:59;93973.25;;;2.35;65.56
75219;BME280;63801;49.414;19.474;2023-05-10T03:29:04;93981.88;;;2.46;65.33
75219;BME280;63801;49.414;19.474;2023-05-10T03:31:05;93975.41;;;2.52;65.39
75219;BME280;63801;49.414;19.474;2023-05-10T03:33:06;93962.97;;;2.47;65.36
75219;BME280;63801;49.414;19.474;2023-05-10T03:35:10;93985.28;;;2.65;65.86
75219;BME280;63801;49.414;19.474;2023-05-10T03:37:11;93981.94;;;2.73;65.61
75219;BME280;63801;49.414;19.474;2023-05-10T03:39:12;93971.69;;;2.80;65.95
75219;BME280;63801;49.414;19.474;2023-05-10T03:41:12;93976.56;;;2.92;65.68
75219;BME280;63801;49.414;19.474;2023-05-10T03:43:12;93979.78;;;3.02;65.64
75219;BME280;63801;49.414;19.474;2023-05-10T03:45:13;93982.06;;;3.09;65.95
75219;BME280;63801;49.414;19.474;2023-05-10T03:47:13;93987.41;;;3.23;65.64
75219;BME280;63801;49.414;19.474;2023-05-10T03:49:13;93978.41;;;3.32;66.07
75219;BME280;63801;49.414;19.474;2023-05-10T03:51:14;93979.50;;;3.45;66.11
75219;BME280;63801;49.414;19.474;2023-05-10T03:53:17;93978.69;;;3.58;66.06
75219;BME280;63801;49.414;19.474;2023-05-10T03:55:17;93972.22;;;3.73;66.21
75219;BME280;63801;49.414;19.474;2023-05-10T03:57:18;93968.94;;;3.89;66.36
75219;BME280;63801;49.414;19.474;2023-05-10T03:59:18;93974.78;;;4.14;66.70
75219;BME280;63801;49.414;19.474;2023-05-10T04:01:18;93985.13;;;4.51;67.31
75219;BME280;63801;49.414;19.474;2023-05-10T04:03:19;93979.66;;;4.87;66.56
75219;BME280;63801;49.414;19.474;2023-05-10T04:05:20;93974.13;;;5.14;66.07
75219;BME280;63801;49.414;19.474;2023-05-10T04:07:20;93971.72;;;5.43;65.98
75219;BME280;63801;49.414;19.474;2023-05-10T04:09:20;93973.53;;;5.82;66.17
75219;BME280;63801;49.414;19.474;2023-05-10T04:11:21;93978.75;;;6.56;65.14
75219;BME280;63801;49.414;19.474;2023-05-10T04:13:22;93976.47;;;7.39;63.35
75219;BME280;63801;49.414;19.474;2023-05-10T04:15:22;93973.66;;;8.15;62.56
75219;BME280;63801;49.414;19.474;2023-05-10T04:17:23;93971.56;;;8.83;61.62
75219;BME280;63801;49.414;19.474;2023-05-10T04:19:23;93974.34;;;9.43;61.82
75219;BME280;63801;49.414;19.474;2023-05-10T04:21:23;93974.22;;;10.01;60.58
75219;BME280;63801;49.414;19.474;2023-05-10T04:23:24;93968.09;;;10.52;59.75
75219;BME280;63801;49.414;19.474;2023-05-10T04:25:24;93966.25;;;10.96;59.52
75219;BME280;63801;49.414;19.474;2023-05-10T04:27:25;93978.59;;;11.41;59.14
75219;BME280;63801;49.414;19.474;2023-05-10T04:29:25;93970.59;;;11.76;58.50
75219;BME280;63801;49.414;19.474;2023-05-10T04:31:26;93966.34;;;12.09;58.21
75219;BME280;63801;49.414;19.474;2023-05-10T04:33:27;93961.72;;;12.45;57.82
75219;BME280;63801;49.414;19.474;2023-05-10T04:35:28;93963.47;;;12.91;57.51
75219;BME280;63801;49.414;19.474;2023-05-10T04:37:28;93964.22;;;13.30;56.52
75219;BME280;63801;49.414;19.474;2023-05-10T04:39:28;93968.97;;;13.60;56.77
75219;BME280;63801;49.414;19.474;2023-05-10T04:41:29;93967.00;;;13.79;55.97
75219;BME280;63801;49.414;19.474;2023-05-10T04:43:29;93970.91;;;14.08;55.86
75219;BME280;63801;49.414;19.474;2023-05-10T04:45:29;93957.19;;;14.47;55.29
75219;BME280;63801;49.414;19.474;2023-05-10T04:47:30;93953.03;;;14.86;54.35
75219;BME280;63801;49.414;19.474;2023-05-10T04:49:30;93953.44;;;15.21;53.21
75219;BME280;63801;49.414;19.474;2023-05-10T04:51:31;93954.88;;;15.49;53.36
75219;BME280;63801;49.414;19.474;2023-05-10T04:53:32;93942.69;;;15.72;53.17
75219;BME280;63801;49.414;19.474;2023-05-10T04:55:34;93956.56;;;16.11;52.50
75219;BME280;63801;49.414;19.474;2023-05-10T04:57:34;93956.75;;;16.36;51.86
75219;BME280;63801;49.414;19.474;2023-05-10T04:59:35;93955.31;;;16.56;51.72
75219;BME280;63801;49.414;19.474;2023-05-10T05:01:37;93955.06;;;16.79;50.22
75219;BME280;63801;49.414;19.474;2023-05-10T05:03:37;93956.72;;;16.94;49.33
75219;BME280;63801;49.414;19.474;2023-05-10T05:05:38;93947.00;;;17.04;48.52
75219;BME280;63801;49.414;19.474;2023-05-10T05:07:38;93956.38;;;17.17;48.59
75219;BME280;63801;49.414;19.474;2023-05-10T05:09:38;93950.19;;;17.31;47.77
75219;BME280;63801;49.414;19.474;2023-05-10T05:11:38;93954.53;;;17.42;47.29
75219;BME280;63801;49.414;19.474;2023-05-10T05:13:40;93957.25;;;17.53;46.50
75219;BME280;63801;49.414;19.474;2023-05-10T05:15:40;93956.53;;;17.67;47.27
75219;BME280;63801;49.414;19.474;2023-05-10T05:17:41;93951.88;;;17.99;47.38
75219;BME280;63801;49.414;19.474;2023-05-10T05:19:41;93941.72;;;18.28;46.36
75219;BME280;63801;49.414;19.474;2023-05-10T05:21:41;93949.13;;;18.49;44.78
75219;BME280;63801;49.414;19.474;2023-05-10T05:23:42;93948.34;;;18.45;45.00
75219;BME280;63801;49.414;19.474;2023-05-10T05:25:42;93946.03;;;18.54;45.56
75219;BME280;63801;49.414;19.474;2023-05-10T05:27:42;93949.84;;;18.74;45.14
75219;BME280;63801;49.414;19.474;2023-05-10T05:29:43;93945.47;;;18.94;44.16
75219;BME280;63801;49.414;19.474;2023-05-10T05:31:43;93944.63;;;19.15;43.78
75219;BME280;63801;49.414;19.474;2023-05-10T05:33:43;93945.00;;;19.17;43.36
75219;BME280;63801;49.414;19.474;2023-05-10T05:35:44;93950.03;;;19.33;42.56
75219;BME280;63801;49.414;19.474;2023-05-10T05:37:47;93949.97;;;19.43;42.23
75219;BME280;63801;49.414;19.474;2023-05-10T05:39:48;93944.88;;;19.49;40.80
75219;BME280;63801;49.414;19.474;2023-05-10T05:41:48;93946.06;;;19.41;41.10
75219;BME280;63801;49.414;19.474;2023-05-10T05:43:49;93938.66;;;19.38;40.71
75219;BME280;63801;49.414;19.474;2023-05-10T05:45:49;93953.06;;;19.49;40.09
75219;BME280;63801;49.414;19.474;2023-05-10T05:47:50;93947.19;;;19.54;40.75
75219;BME280;63801;49.414;19.474;2023-05-10T05:49:50;93944.41;;;19.64;40.73
75219;BME280;63801;49.414;19.474;2023-05-10T05:51:50;93950.44;;;19.93;40.59
75219;BME280;63801;49.414;19.474;2023-05-10T05:53:51;93956.13;;;20.16;40.10
75219;BME280;63801;49.414;19.474;2023-05-10T05:55:56;93948.19;;;20.33;40.18
75219;BME280;63801;49.414;19.474;2023-05-10T05:57:57;93955.03;;;20.55;40.01
75219;BME280;63801;49.414;19.474;2023-05-10T05:59:58;93944.22;;;20.78;39.62
75219;BME280;63801;49.414;19.474;2023-05-10T06:01:58;93947.06;;;21.05;38.80
75219;BME280;63801;49.414;19.474;2023-05-10T06:03:59;93942.97;;;21.20;38.54
75219;BME280;63801;49.414;19.474;2023-05-10T06:05:59;93945.22;;;21.29;38.54
75219;BME280;63801;49.414;19.474;2023-05-10T06:07:59;93945.41;;;21.45;38.29
75219;BME280;63801;49.414;19.474;2023-05-10T06:10:01;93944.50;;;21.55;37.67
75219;BME280;63801;49.414;19.474;2023-05-10T06:12:01;93947.00;;;21.73;37.88
75219;BME280;63801;49.414;19.474;2023-05-10T06:14:02;93945.53;;;21.91;37.48
75219;BME280;63801;49.414;19.474;2023-05-10T06:16:04;93952.13;;;21.98;37.19
75219;BME280;63801;49.414;19.474;2023-05-10T06:18:04;93947.88;;;22.20;37.46
75219;BME280;63801;49.414;19.474;2023-05-10T06:20:06;93946.66;;;22.44;37.05
75219;BME280;63801;49.414;19.474;2023-05-10T06:22:07;93946.31;;;22.65;36.81
75219;BME280;63801;49.414;19.474;2023-05-10T06:24:07;93947.50;;;22.88;36.40
75219;BME280;63801;49.414;19.474;2023-05-10T06:26:07;93943.97;;;23.07;36.22
75219;BME280;63801;49.414;19.474;2023-05-10T06:28:08;93943.28;;;23.03;35.83
75219;BME280;63801;49.414;19.474;2023-05-10T06:30:08;93947.88;;;23.09;35.46
75219;BME280;63801;49.414;19.474;2023-05-10T06:32:09;93935.13;;;23.19;35.60
75219;BME280;63801;49.414;19.474;2023-05-10T06:34:09;93945.97;;;23.26;35.16
75219;BME280;63801;49.414;19.474;2023-05-10T06:36:11;93929.94;;;23.41;35.49
75219;BME280;63801;49.414;19.474;2023-05-10T06:38:12;93933.69;;;23.50;35.25
75219;BME280;63801;49.414;19.474;2023-05-10T06:40:12;93935.78;;;23.62;35.04
75219;BME280;63801;49.414;19.474;2023-05-10T06:42:12;93929.44;;;23.82;34.85
75219;BME280;63801;49.414;19.474;2023-05-10T06:44:13;93925.06;;;23.84;34.70
75219;BME280;63801;49.414;19.474;2023-05-10T06:46:13;93930.59;;;23.84;34.21
75219;BME280;63801;49.414;19.474;2023-05-10T06:48:13;93934.69;;;23.76;34.66
75219;BME280;63801;49.414;19.474;2023-05-10T06:50:14;93931.69;;;23.70;34.63
75219;BME280;63801;49.414;19.474;2023-05-10T06:52:15;93928.03;;;23.57;34.62
75219;BME280;63801;49.414;19.474;2023-05-10T06:54:15;93928.81;;;23.58;34.68
75219;BME280;63801;49.414;19.474;2023-05-10T06:56:15;93923.75;;;23.72;34.50
75219;BME280;63801;49.414;19.474;2023-05-10T06:58:16;93922.41;;;23.81;34.03
75219;BME280;63801;49.414;19.474;2023-05-10T07:00:17;93920.94;;;23.76;34.29
75219;BME280;63801;49.414;19.474;2023-05-10T07:02:18;93925.31;;;23.73;34.39
75219;BME280;63801;49.414;19.474;2023-05-10T07:04:18;93919.22;;;23.82;34.08
75219;BME280;63801;49.414;19.474;2023-05-10T07:06:18;93928.44;;;23.92;34.32
75219;BME280;63801;49.414;19.474;2023-05-10T07:08:19;93922.50;;;23.93;34.25
75219;BME280;63801;49.414;19.474;2023-05-10T07:10:19;93918.41;;;24.17;33.87
75219;BME280;63801;49.414;19.474;2023-05-10T07:12:20;93921.59;;;24.32;33.56
75219;BME280;63801;49.414;19.474;2023-05-10T07:14:20;93914.94;;;24.46;33.69
75219;BME280;63801;49.414;19.474;2023-05-10T07:16:20;93928.13;;;24.54;33.42
75219;BME280;63801;49.414;19.474;2023-05-10T07:18:21;93917.16;;;24.67;33.13
75219;BME280;63801;49.414;19.474;2023-05-10T07:20:22;93913.25;;;24.81;33.50
75219;BME280;63801;49.414;19.474;2023-05-10T07:22:22;93912.91;;;24.95;33.17
75219;BME280;63801;49.414;19.474;2023-05-10T07:24:22;93912.41;;;25.13;33.50
75219;BME280;63801;49.414;19.474;2023-05-10T07:26:23;93904.63;;;25.36;33.32
75219;BME280;63801;49.414;19.474;2023-05-10T07:28:24;93908.56;;;25.64;33.36
75219;BME280;63801;49.414;19.474;2023-05-10T07:30:24;93917.84;;;25.83;32.88
75219;BME280;63801;49.414;19.474;2023-05-10T07:32:24;93912.31;;;25.96;32.54
75219;BME280;63801;49.414;19.474;2023-05-10T07:34:25;93910.91;;;25.91;32.43
75219;BME280;63801;49.414;19.474;2023-05-10T07:36:25;93909.13;;;25.97;32.66
75219;BME280;63801;49.414;19.474;2023-05-10T07:38:25;93911.09;;;26.09;32.41
75219;BME280;63801;49.414;19.474;2023-05-10T07:40:26;93906.59;;;26.15;32.79
75219;BME280;63801;49.414;19.474;2023-05-10T07:42:26;93900.25;;;26.40;32.41
75219;BME280;63801;49.414;19.474;2023-05-10T07:44:26;93906.94;;;26.64;32.21
75219;BME280;63801;49.414;19.474;2023-05-10T07:46:27;93903.56;;;26.48;31.71
75219;BME280;63801;49.414;19.474;2023-05-10T07:48:27;93900.94;;;26.31;32.42
75219;BME280;63801;49.414;19.474;2023-05-10T07:50:27;93894.28;;;26.42;32.11
75219;BME280;63801;49.414;19.474;2023-05-10T07:52:28;93898.59;;;26.43;31.52
75219;BME280;63801;49.414;19.474;2023-05-10T07:54:28;93907.00;;;26.39;32.40
75219;BME280;63801;49.414;19.474;2023-05-10T07:56:30;93910.38;;;26.56;32.67
75219;BME280;63801;49.414;19.474;2023-05-10T07:58:31;93906.44;;;26.78;32.12
75219;BME280;63801;49.414;19.474;2023-05-10T08:00:32;93904.56;;;26.88;31.80
75219;BME280;63801;49.414;19.474;2023-05-10T08:02:34;93896.72;;;26.87;32.00
75219;BME280;63801;49.414;19.474;2023-05-10T08:04:35;93901.88;;;26.97;32.03
75219;BME280;63801;49.414;19.474;2023-05-10T08:06:35;93900.31;;;26.96;31.50
75219;BME280;63801;49.414;19.474;2023-05-10T08:08:35;93893.28;;;26.95;31.19
75219;BME280;63801;49.414;19.474;2023-05-10T08:10:36;93888.31;;;26.90;31.84
75219;BME280;63801;49.414;19.474;2023-05-10T08:12:36;93891.06;;;26.90;31.93
75219;BME280;63801;49.414;19.474;2023-05-10T08:14:37;93894.91;;;26.93;31.10
75219;BME280;63801;49.414;19.474;2023-05-10T08:16:38;93892.72;;;26.88;31.39
75219;BME280;63801;49.414;19.474;2023-05-10T08:18:38;93889.72;;;26.82;31.72
75219;BME280;63801;49.414;19.474;2023-05-10T08:20:39;93898.41;;;26.71;31.08
75219;BME280;63801;49.414;19.474;2023-05-10T08:22:39;93894.25;;;26.54;31.44
75219;BME280;63801;49.414;19.474;2023-05-10T08:24:39;93892.44;;;26.26;30.86
75219;BME280;63801;49.414;19.474;2023-05-10T08:26:41;93899.19;;;25.87;31.79
75219;BME280;63801;49.414;19.474;2023-05-10T08:28:42;93893.31;;;25.60;31.81
75219;BME280;63801;49.414;19.474;2023-05-10T08:30:42;93893.78;;;25.29;32.07
75219;BME280;63801;49.414;19.474;2023-05-10T08:32:43;93894.00;;;24.93;31.54
75219;BME280;63801;49.414;19.474;2023-05-10T08:34:43;93894.28;;;24.38;32.05
75219;BME280;63801;49.414;19.474;2023-05-10T08:36:43;93893.72;;;23.78;32.51
75219;BME280;63801;49.414;19.474;2023-05-10T08:38:44;93895.88;;;23.35;33.52
75219;BME280;63801;49.414;19.474;2023-05-10T08:40:44;93890.03;;;23.13;34.30
75219;BME280;63801;49.414;19.474;2023-05-10T08:43:05;93893.50;;;22.77;34.34
75219;BME280;63801;49.414;19.474;2023-05-10T08:45:10;93894.53;;;22.17;34.25
75219;BME280;63801;49.414;19.474;2023-05-10T08:47:11;93895.78;;;21.63;34.47
75219;BME280;63801;49.414;19.474;2023-05-10T08:49:19;93892.09;;;21.19;35.36
75219;BME280;63801;49.414;19.474;2023-05-10T08:51:24;93890.00;;;20.96;36.08
75219;BME280;63801;49.414;19.474;2023-05-10T08:53:29;93889.25;;;20.92;36.62
75219;BME280;63801;49.414;19.474;2023-05-10T08:55:32;93889.38;;;20.82;36.04
75219;BME280;63801;49.414;19.474;2023-05-10T08:57:33;93895.34;;;20.39;36.22
75219;BME280;63801;49.414;19.474;2023-05-10T08:59:34;93888.25;;;19.97;36.66
75219;BME280;63801;49.414;19.474;2023-05-10T09:01:35;93901.31;;;19.76;36.86
75219;BME280;63801;49.414;19.474;2023-05-10T09:03:38;93892.94;;;19.42;36.71
75219;BME280;63801;49.414;19.474;2023-05-10T09:05:38;93895.03;;;19.16;37.65
75219;BME280;63801;49.414;19.474;2023-05-10T09:07:39;93893.91;;;19.10;37.73
75219;BME280;63801;49.414;19.474;2023-05-10T09:09:39;93881.47;;;18.95;37.59
75219;BME280;63801;49.414;19.474;2023-05-10T09:11:40;93893.97;;;18.96;38.35
75219;BME280;63801;49.414;19.474;2023-05-10T09:13:41;93890.88;;;18.87;37.96
75219;BME280;63801;49.414;19.474;2023-05-10T09:15:43;93891.72;;;18.73;38.23
75219;BME280;63801;49.414;19.474;2023-05-10T09:17:45;93892.56;;;18.53;38.16
75219;BME280;63801;49.414;19.474;2023-05-10T09:19:45;93895.31;;;18.24;38.43
75219;BME280;63801;49.414;19.474;2023-05-10T09:21:46;93896.91;;;18.08;38.88
75219;BME280;63801;49.414;19.474;2023-05-10T09:23:48;93895.75;;;18.02;39.19
75219;BME280;63801;49.414;19.474;2023-05-10T09:26:02;93891.84;;;18.13;39.85
75219;BME280;63801;49.414;19.474;2023-05-10T09:28:08;93889.84;;;18.35;39.23
75219;BME280;63801;49.414;19.474;2023-05-10T09:30:09;93877.75;;;18.54;39.44
75219;BME280;63801;49.414;19.474;2023-05-10T09:32:09;93890.59;;;18.60;38.96
75219;BME280;63801;49.414;19.474;2023-05-10T09:34:10;93879.28;;;18.51;38.75
75219;BME280;63801;49.414;19.474;2023-05-10T09:36:10;93884.78;;;18.33;38.72
75219;BME280;63801;49.414;19.474;2023-05-10T09:38:11;93884.84;;;18.09;39.25
75219;BME280;63801;49.414;19.474;2023-05-10T09:40:19;93886.38;;;18.06;39.48
75219;BME280;63801;49.414;19.474;2023-05-10T09:42:20;93889.50;;;18.12;39.68
75219;BME280;63801;49.414;19.474;2023-05-10T09:44:20;93884.84;;;18.12;39.55
75219;BME280;63801;49.414;19.474;2023-05-10T09:46:21;93880.94;;;17.99;39.48
75219;BME280;63801;49.414;19.474;2023-05-10T09:48:23;93882.13;;;17.84;39.44
75219;BME280;63801;49.414;19.474;2023-05-10T09:50:24;93883.66;;;17.57;39.25
75219;BME280;63801;49.414;19.474;2023-05-10T09:52:25;93884.03;;;17.30;39.37
75219;BME280;63801;49.414;19.474;2023-05-10T09:54:26;93877.78;;;17.19;39.73
75219;BME280;63801;49.414;19.474;2023-05-10T09:56:33;93878.56;;;17.23;39.89
75219;BME280;63801;49.414;19.474;2023-05-10T09:58:36;93875.06;;;17.37;40.17
75219;BME280;63801;49.414;19.474;2023-05-10T10:00:40;93877.06;;;17.65;40.49
75219;BME280;63801;49.414;19.474;2023-05-10T10:02:40;93873.94;;;17.84;40.11
75219;BME280;63801;49.414;19.474;2023-05-10T10:04:41;93863.03;;;17.91;39.80
75219;BME280;63801;49.414;19.474;2023-05-10T10:06:42;93862.25;;;17.94;39.70
75219;BME280;63801;49.414;19.474;2023-05-10T10:08:42;93865.75;;;17.91;39.63
75219;BME280;63801;49.414;19.474;2023-05-10T10:10:43;93860.31;;;17.77;39.54
75219;BME280;63801;49.414;19.474;2023-05-10T10:12:46;93853.31;;;17.58;39.64
75219;BME280;63801;49.414;19.474;2023-05-10T10:14:47;93857.22;;;17.61;39.99
75219;BME280;63801;49.414;19.474;2023-05-10T10:16:49;93863.03;;;17.59;39.99
75219;BME280;63801;49.414;19.474;2023-05-10T10:18:50;93857.94;;;17.58;40.02
75219;BME280;63801;49.414;19.474;2023-05-10T10:20:51;93860.69;;;17.50;39.79
75219;BME280;63801;49.414;19.474;2023-05-10T10:22:52;93856.78;;;17.30;40.19
75219;BME280;63801;49.414;19.474;2023-05-10T10:24:54;93865.72;;;17.20;40.07
75219;BME280;63801;49.414;19.474;2023-05-10T10:26:58;93859.84;;;17.11;40.23
75219;BME280;63801;49.414;19.474;2023-05-10T10:34:06;93863.69;;;16.92;40.16
75219;BME280;63801;49.414;19.474;2023-05-10T10:36:08;93858.66;;;17.01;40.44
75219;BME280;63801;49.414;19.474;2023-05-10T10:38:08;93854.78;;;17.10;40.30
75219;BME280;63801;49.414;19.474;2023-05-10T10:40:28;93866.47;;;17.14;40.43
75219;BME280;63801;49.414;19.474;2023-05-10T10:42:45;93850.94;;;17.21;40.21
75219;BME280;63801;49.414;19.474;2023-05-10T10:45:11;93845.06;;;17.19;40.25
75219;BME280;63801;49.414;19.474;2023-05-10T10:49:14;93841.94;;;17.10;40.24
75219;BME280;63801;49.414;19.474;2023-05-10T10:51:14;93840.41;;;17.13;40.32
75219;BME280;63801;49.414;19.474;2023-05-10T10:53:15;93850.91;;;17.14;40.02
75219;BME280;63801;49.414;19.474;2023-05-10T10:55:19;93851.69;;;17.22;40.07
75219;BME280;63801;49.414;19.474;2023-05-10T10:57:24;93841.97;;;17.24;40.12
75219;BME280;63801;49.414;19.474;2023-05-10T10:59:27;93844.31;;;17.29;39.99
75219;BME280;63801;49.414;19.474;2023-05-10T11:01:33;93849.00;;;17.25;39.98